KJSL/JSL METAR and TAF weather

Enter ICAO airport designator
Station Type Date Time Source
KJSL METAR 2020/07/06 03:00 UTC NOAA

KJSL 060300Z AUTO 23007KT 10SM CLR 29/23 A2993 RMK A01


Station Type Date Time Source
KJSL Decoded METAR 2020/07/06 03:00 UTC NOAA

Station name not available
Jul 05, 2020 - 11:00 PM EDT / 2020.07.06 0300 UTC
Wind: from the SW (230 degrees) at 8 MPH (7 KT):0
Visibility: 10 mile(s):0
Sky conditions: clear
Temperature: 84 F (29 C)
Dew Point: 73 F (23 C)
Relative Humidity: 70%
Pressure (altimeter): 29.93 in. Hg (1013 hPa)
ob: KJSL 060300Z AUTO 23007KT 10SM CLR 29/23 A2993 RMK A01
cycle: 3

Station Type Date Time Source
KJSL TAF UTC NOAA

Error!

Example: see airport list